Kansai — JD3272 — position and weather

sailwx.info

Track history (hours):
 
Tides and Currents Weather Stations Pressure Air Temp Water Temp Dewpoint Dewpoint Depression Visibility Wind Speed Wind Dir Waves Ship Positions

Kansai

Last reported at 2015-Apr-19 10:24 UTC. Time now 2015-Apr-21 01:28 UTC.
Position N 33°60' E 135°01'.

Length 73 m; draft 4.2 m.

Type: Cargo ship. MMSI: 431003134.

Date/timePositionNaut miles runAvg speedWind from/ knotsBaromVisibWave heightAir tempDewpointWater temp
2015-Apr-19 10:24N 33°60' E 135°01'8 9.8
2015-Apr-19 09:33N 34°08' E 134°60'1210.2
2015-Apr-19 08:23N 34°20' E 134°59'810.1
2015-Apr-19 07:33N 34°28' E 135°02'10 8.3
2015-Apr-19 06:23N 34°36' E 134°56'8 0.5
2015-Apr-18 16:33N 34°41' E 134°49'  
2015-Apr-11 10:33N 33°43' E 129°58'2311.0
2015-Apr-11 08:29N 33°54' E 130°21'1410.3
2015-Apr-11 07:09N 33°57' E 130°37'214 5.5
2015-Apr-09 16:24N 34°39' E 134°51'1112.8
2015-Apr-09 15:33N 34°36' E 135°04'1611.8
2015-Apr-09 14:13N 34°20' E 135°01'  
Track history (hours):
 
Tides and Currents Weather Stations Pressure Air Temp Water Temp Dewpoint Dewpoint Depression Visibility Wind Speed Wind Dir Waves Ship Positions

Kansai

Last reported at 2015-Apr-19 10:24 UTC. Time now 2015-Apr-21 01:28 UTC.
Position N 33°60' E 135°01'.

Length 73 m; draft 4.2 m.

Type: Cargo ship. MMSI: 431003134.

Date/timePositionNaut miles runAvg speedWind from/ knotsBaromVisibWave heightAir tempDewpointWater temp
2015-Apr-19 10:24N 33°60' E 135°01'8 9.8
2015-Apr-19 09:33N 34°08' E 134°60'1210.2
2015-Apr-19 08:23N 34°20' E 134°59'810.1
2015-Apr-19 07:33N 34°28' E 135°02'10 8.3
2015-Apr-19 06:23N 34°36' E 134°56'8 0.5
2015-Apr-18 16:33N 34°41' E 134°49'  
2015-Apr-11 10:33N 33°43' E 129°58'2311.0
2015-Apr-11 08:29N 33°54' E 130°21'1410.3
2015-Apr-11 07:09N 33°57' E 130°37'214 5.5
2015-Apr-09 16:24N 34°39' E 134°51'1112.8
2015-Apr-09 15:33N 34°36' E 135°04'1611.8
2015-Apr-09 14:13N 34°20' E 135°01'  

Dump ship's entire track history